createdAt,value
2018-11-05T00:02:04.862Z,45.10
2018-11-05T00:04:36.903Z,45.80
2018-11-05T00:07:08.893Z,46.57
2018-11-05T00:09:40.927Z,45.40
2018-11-05T00:12:12.951Z,43.87
2018-11-05T00:14:44.982Z,43.80
2018-11-05T00:17:16.999Z,45.33
2018-11-05T00:19:49.065Z,48.87
2018-11-05T00:22:21.067Z,45.83
2018-11-05T00:24:53.113Z,46.77
2018-11-05T00:27:25.116Z,45.40
2018-11-05T00:29:57.137Z,47.43
2018-11-05T00:32:29.156Z,48.77
2018-11-05T00:35:01.183Z,48.40
2018-11-05T00:37:33.317Z,47.60
2018-11-05T00:40:10.903Z,48.07
2018-11-05T00:42:43.787Z,50.07
2018-11-05T00:45:15.807Z,48.47
2018-11-05T00:47:47.843Z,48.10
2018-11-05T00:50:19.846Z,47.83
2018-11-05T00:52:51.875Z,48.53
2018-11-05T00:55:23.885Z,50.10
2018-11-05T00:57:55.900Z,48.70
2018-11-05T01:00:27.937Z,47.60
2018-11-05T01:03:00.208Z,50.03
2018-11-05T01:05:32.319Z,49.07
2018-11-05T01:08:04.945Z,51.00
2018-11-05T01:10:37.054Z,49.23
2018-11-05T01:13:09.301Z,49.93
2018-11-05T01:15:41.404Z,48.70
2018-11-05T01:18:13.499Z,49.87
2018-11-05T01:20:45.633Z,49.90
2018-11-05T01:23:17.723Z,52.00
2018-11-05T01:25:49.971Z,53.30
2018-11-05T01:28:22.009Z,50.50
2018-11-05T01:30:54.035Z,53.50
2018-11-05T01:33:26.137Z,53.50
2018-11-05T01:35:58.247Z,52.03
2018-11-05T01:38:30.308Z,54.00
2018-11-05T01:41:02.351Z,53.83
2018-11-05T01:43:34.345Z,53.47
2018-11-05T01:46:06.412Z,56.97
2018-11-05T01:48:38.435Z,54.57
2018-11-05T01:51:10.419Z,56.47
2018-11-05T01:53:42.474Z,54.10
2018-11-05T01:56:14.485Z,56.83
2018-11-05T01:58:46.489Z,55.13
2018-11-05T02:01:18.542Z,55.27
2018-11-05T02:03:50.532Z,56.57
2018-11-05T02:06:22.550Z,57.90
2018-11-05T02:08:54.590Z,60.17
2018-11-05T02:11:26.599Z,58.67
2018-11-05T02:13:58.662Z,56.93
2018-11-05T02:16:30.676Z,58.13
2018-11-05T02:19:02.666Z,59.63
2018-11-05T02:21:34.709Z,60.10
2018-11-05T02:24:06.722Z,57.73
2018-11-05T02:26:38.739Z,57.47
2018-11-05T02:29:10.773Z,56.47
2018-11-05T02:31:42.956Z,59.40
2018-11-05T02:34:15.113Z,57.57
2018-11-05T02:36:47.132Z,60.10
2018-11-05T02:39:19.186Z,60.03
2018-11-05T02:41:51.672Z,62.07
2018-11-05T02:44:23.699Z,59.23
2018-11-05T02:46:55.746Z,59.17
2018-11-05T02:49:27.733Z,59.73
2018-11-05T02:51:59.754Z,59.97
2018-11-05T02:54:31.734Z,60.40
2018-11-05T02:57:03.742Z,59.03
2018-11-05T02:59:35.805Z,60.10
2018-11-05T03:02:07.798Z,61.97
2018-11-05T03:04:39.811Z,63.03
2018-11-05T03:07:12.334Z,62.33
2018-11-05T03:09:44.486Z,61.03
2018-11-05T03:12:16.515Z,59.37
2018-11-05T03:14:48.609Z,61.77
2018-11-05T03:17:20.650Z,58.10
2018-11-05T03:19:52.762Z,62.17
2018-11-05T03:22:24.787Z,62.53
2018-11-05T03:24:56.831Z,61.60
2018-11-05T03:27:28.857Z,62.57
2018-11-05T03:30:00.944Z,61.80
2018-11-05T03:32:32.979Z,62.00
2018-11-05T03:35:05.739Z,61.73
2018-11-05T03:37:38.328Z,61.17
2018-11-05T03:40:11.212Z,63.67
2018-11-05T03:42:43.546Z,57.10
2018-11-05T03:45:16.157Z,61.10
2018-11-05T03:47:48.244Z,58.47
2018-11-05T03:50:20.271Z,60.13
2018-11-05T03:52:52.409Z,65.90
2018-11-05T03:55:24.721Z,64.03
2018-11-05T03:57:56.803Z,59.90
2018-11-05T04:00:28.811Z,62.37
2018-11-05T04:03:00.980Z,62.63
2018-11-05T04:05:33.027Z,63.57
2018-11-05T04:08:05.114Z,63.33
2018-11-05T04:10:37.184Z,62.57
2018-11-05T04:13:09.193Z,59.50
2018-11-05T04:15:41.358Z,65.20
2018-11-05T04:18:13.257Z,60.97
2018-11-05T04:20:45.296Z,58.33
2018-11-05T04:23:17.339Z,61.10
2018-11-05T04:25:49.387Z,61.53
2018-11-05T04:28:21.438Z,60.87
2018-11-05T04:30:53.437Z,63.20
2018-11-05T04:33:25.495Z,64.87
2018-11-05T04:35:57.525Z,57.07
2018-11-05T04:38:29.573Z,62.50
2018-11-05T04:41:01.614Z,63.07
2018-11-05T04:43:33.683Z,61.63
2018-11-05T04:46:05.686Z,63.90
2018-11-05T04:48:37.873Z,63.17
2018-11-05T04:51:09.885Z,65.80
2018-11-05T04:53:41.982Z,64.00
2018-11-05T04:56:14.027Z,60.53
2018-11-05T04:58:46.058Z,57.53
2018-11-05T05:01:18.046Z,58.60
2018-11-05T05:03:50.111Z,58.13
2018-11-05T05:06:22.103Z,59.03
2018-11-05T05:08:54.203Z,56.90
2018-11-05T05:11:26.272Z,59.93
2018-11-05T05:13:58.273Z,63.10
2018-11-05T05:16:30.368Z,60.10
2018-11-05T05:19:02.928Z,59.00
2018-11-05T05:21:35.034Z,61.87
2018-11-05T05:24:07.087Z,58.67
2018-11-05T05:26:39.133Z,61.20
2018-11-05T05:29:11.182Z,59.23
2018-11-05T05:31:43.231Z,54.80
2018-11-05T05:34:15.222Z,61.30
2018-11-05T05:36:47.251Z,57.03
2018-11-05T05:39:19.270Z,58.93
2018-11-05T05:41:51.302Z,59.77
2018-11-05T05:44:23.302Z,57.73
2018-11-05T05:46:55.338Z,54.13
2018-11-05T05:49:27.402Z,59.03
2018-11-05T05:51:59.548Z,59.50
2018-11-05T05:54:31.737Z,61.87
2018-11-05T05:57:03.814Z,57.20
2018-11-05T05:59:35.829Z,58.30
2018-11-05T06:02:08.050Z,59.87
2018-11-05T06:04:40.473Z,54.60
2018-11-05T06:07:12.465Z,53.47
2018-11-05T06:09:44.487Z,59.77
2018-11-05T06:12:16.480Z,53.40
2018-11-05T06:14:48.536Z,53.13
2018-11-05T06:17:20.533Z,56.13
2018-11-05T06:19:52.550Z,58.30
2018-11-05T06:22:24.547Z,59.37
2018-11-05T06:24:56.906Z,55.90
2018-11-05T06:27:28.910Z,50.27
2018-11-05T06:30:00.941Z,57.17
2018-11-05T06:32:32.970Z,56.93
2018-11-05T06:35:06.311Z,56.37
2018-11-05T06:37:38.622Z,54.30
2018-11-05T06:40:12.551Z,59.70
2018-11-05T06:42:44.819Z,54.10
2018-11-05T06:45:18.139Z,55.43
2018-11-05T06:47:50.558Z,57.20
2018-11-05T06:50:24.712Z,54.53
2018-11-05T06:52:56.813Z,53.83
2018-11-05T06:55:28.778Z,53.50
2018-11-05T06:58:00.796Z,51.43
2018-11-05T07:00:32.801Z,53.23
2018-11-05T07:03:04.803Z,55.93
2018-11-05T07:05:36.901Z,56.40
2018-11-05T07:08:08.954Z,54.50
2018-11-05T07:10:40.985Z,53.83
2018-11-05T07:13:13.104Z,49.27
2018-11-05T07:15:45.127Z,55.60
2018-11-05T07:18:17.214Z,53.53
2018-11-05T07:20:49.138Z,54.57
2018-11-05T07:23:21.173Z,55.63
2018-11-05T07:25:53.174Z,51.00
2018-11-05T07:28:25.211Z,50.93
2018-11-05T07:30:57.266Z,56.53
2018-11-05T07:33:29.428Z,51.50
2018-11-05T07:36:01.335Z,53.80
2018-11-05T07:38:33.456Z,52.40
2018-11-05T07:41:05.541Z,54.50
2018-11-05T07:43:37.581Z,54.13
2018-11-05T07:46:09.623Z,45.20
2018-11-05T07:48:41.624Z,51.10
2018-11-05T07:51:13.643Z,51.57
2018-11-05T07:53:45.692Z,42.13
2018-11-05T07:56:17.825Z,49.97
2018-11-05T07:58:49.837Z,49.70
2018-11-05T08:01:21.865Z,48.80
2018-11-05T08:03:53.866Z,51.73
2018-11-05T08:06:25.911Z,48.97
2018-11-05T08:08:57.990Z,49.53
2018-11-05T08:11:30.055Z,50.13
2018-11-05T08:14:02.194Z,50.53
2018-11-05T08:16:34.503Z,48.83
2018-11-05T08:19:07.174Z,48.20
2018-11-05T08:21:39.235Z,48.43
2018-11-05T08:24:11.731Z,45.90
2018-11-05T08:26:43.725Z,45.50
2018-11-05T08:29:15.748Z,46.47
2018-11-05T08:31:47.774Z,46.97
2018-11-05T08:34:19.862Z,46.80
2018-11-05T08:36:51.873Z,46.77
2018-11-05T08:39:23.918Z,47.80
2018-11-05T08:41:55.926Z,51.50
2018-11-05T08:44:27.949Z,50.43
2018-11-05T08:47:00.001Z,47.87
2018-11-05T08:49:32.013Z,45.07
2018-11-05T08:52:04.054Z,47.73
2018-11-05T08:54:36.079Z,48.47
2018-11-05T08:57:08.143Z,45.63
2018-11-05T08:59:40.210Z,46.13
2018-11-05T09:02:12.240Z,46.10
2018-11-05T09:04:44.430Z,46.63
2018-11-05T09:07:16.375Z,43.93
2018-11-05T09:09:48.484Z,45.13
2018-11-05T09:12:20.413Z,42.57
2018-11-05T09:14:52.427Z,45.30
2018-11-05T09:17:24.474Z,42.40
2018-11-05T09:19:56.523Z,45.90
2018-11-05T09:22:28.521Z,46.17
2018-11-05T09:25:00.572Z,44.40
2018-11-05T09:27:32.603Z,45.53
2018-11-05T09:30:06.965Z,42.60
2018-11-05T09:32:38.957Z,43.07
2018-11-05T09:35:11.010Z,43.47
2018-11-05T09:37:43.085Z,45.27
2018-11-05T09:40:19.436Z,44.13
2018-11-05T09:42:51.761Z,42.60
2018-11-05T09:45:25.181Z,44.40
2018-11-05T09:47:57.204Z,42.93
2018-11-05T09:50:29.293Z,41.77
2018-11-05T09:53:01.287Z,42.87
2018-11-05T09:55:33.310Z,45.97
2018-11-05T09:58:05.354Z,43.83
2018-11-05T10:00:39.107Z,46.37
2018-11-05T10:03:14.900Z,44.07
2018-11-05T10:05:46.750Z,41.67
2018-11-05T10:08:18.786Z,43.37
2018-11-05T10:10:50.816Z,42.17
2018-11-05T10:13:22.844Z,43.97
2018-11-05T10:15:54.851Z,40.90
2018-11-05T10:18:26.871Z,42.73
2018-11-05T10:20:58.851Z,40.87
2018-11-05T10:23:30.871Z,41.93
2018-11-05T10:26:02.876Z,41.00
2018-11-05T10:28:34.898Z,40.93
2018-11-05T10:31:06.953Z,37.67
2018-11-05T10:33:39.047Z,36.60
2018-11-05T10:36:12.351Z,35.90
2018-11-05T10:38:44.368Z,36.00
2018-11-05T10:41:16.775Z,38.63
2018-11-05T10:43:48.779Z,38.70
2018-11-05T10:46:20.893Z,39.73
2018-11-05T10:48:52.821Z,36.47
2018-11-05T10:51:24.926Z,35.70
2018-11-05T10:53:56.887Z,41.30
2018-11-05T10:56:28.901Z,39.70
2018-11-05T10:59:00.995Z,34.43
2018-11-05T11:01:38.788Z,38.93
2018-11-05T11:04:16.681Z,40.40
2018-11-05T11:06:48.627Z,40.10
2018-11-05T11:09:20.776Z,39.77
2018-11-05T11:11:52.782Z,38.77
2018-11-05T11:14:24.808Z,38.97
2018-11-05T11:16:57.017Z,40.07
2018-11-05T11:19:29.050Z,36.70
2018-11-05T11:22:01.096Z,38.33
2018-11-05T11:24:33.884Z,37.43
2018-11-05T11:27:05.927Z,39.53
2018-11-05T11:29:37.950Z,39.37
2018-11-05T11:32:09.974Z,39.53
2018-11-05T11:34:42.074Z,39.83
2018-11-05T11:37:14.162Z,38.00
2018-11-05T11:39:46.113Z,38.10
2018-11-05T11:42:18.139Z,36.67
2018-11-05T11:44:50.164Z,35.50
2018-11-05T11:47:22.246Z,38.30
2018-11-05T11:49:54.238Z,37.03
2018-11-05T11:52:26.284Z,37.63
2018-11-05T11:54:58.325Z,33.93
2018-11-05T11:57:30.375Z,35.20
2018-11-05T12:00:02.386Z,37.30
2018-11-05T12:02:34.409Z,37.50
2018-11-05T12:05:06.945Z,35.87
2018-11-05T12:07:39.413Z,35.63
2018-11-05T12:10:17.445Z,33.43
2018-11-05T12:12:49.493Z,34.23
2018-11-05T12:15:22.221Z,34.57
2018-11-05T12:17:54.281Z,33.37
2018-11-05T12:20:26.322Z,34.93
2018-11-05T12:22:58.337Z,33.27
2018-11-05T12:25:30.396Z,32.60
2018-11-05T12:28:02.428Z,33.70
2018-11-05T12:30:34.468Z,32.80
2018-11-05T12:33:06.519Z,30.43
2018-11-05T12:35:38.510Z,34.07
2018-11-05T12:38:10.538Z,32.63
2018-11-05T12:40:42.541Z,30.37
2018-11-05T12:43:14.559Z,32.43
2018-11-05T12:45:46.569Z,33.30
2018-11-05T12:48:18.586Z,31.20
2018-11-05T12:50:50.599Z,29.00
2018-11-05T12:53:22.608Z,30.60
2018-11-05T12:55:54.638Z,31.13
2018-11-05T12:58:26.625Z,33.30
2018-11-05T13:00:58.687Z,34.47
2018-11-05T13:03:30.696Z,33.67
2018-11-05T13:06:02.722Z,31.83
2018-11-05T13:08:34.771Z,33.47
2018-11-05T13:11:06.823Z,32.33
2018-11-05T13:13:39.018Z,32.00
2018-11-05T13:16:11.067Z,33.40
2018-11-05T13:18:43.123Z,32.27
2018-11-05T13:21:15.138Z,32.10
2018-11-05T13:23:47.199Z,32.17
2018-11-05T13:26:19.206Z,30.70
2018-11-05T13:28:51.235Z,31.27
2018-11-05T13:31:23.270Z,33.37
2018-11-05T13:33:55.280Z,33.37
2018-11-05T13:36:27.315Z,31.20
2018-11-05T13:38:59.314Z,33.60
2018-11-05T13:41:31.331Z,33.13
2018-11-05T13:44:03.333Z,35.23
2018-11-05T13:46:35.749Z,32.97
2018-11-05T13:49:08.412Z,34.73
2018-11-05T13:51:39.718Z,35.07
2018-11-05T13:54:11.851Z,36.23
2018-11-05T13:56:43.810Z,35.37
2018-11-05T13:59:15.863Z,34.77
2018-11-05T14:01:49.169Z,33.93
2018-11-05T14:04:21.230Z,33.23
2018-11-05T14:06:53.267Z,34.20
2018-11-05T14:09:25.287Z,35.70
2018-11-05T14:11:57.322Z,34.97
2018-11-05T14:14:29.358Z,34.63
2018-11-05T14:17:01.334Z,35.13
2018-11-05T14:19:33.352Z,36.97
2018-11-05T14:22:05.372Z,36.30
2018-11-05T14:24:37.395Z,35.90
2018-11-05T14:27:09.408Z,36.60
2018-11-05T14:29:41.853Z,37.00
2018-11-05T14:32:13.711Z,35.73
2018-11-05T14:34:47.278Z,36.60
2018-11-05T14:37:19.828Z,38.10
2018-11-05T14:39:51.886Z,34.70
2018-11-05T14:42:23.938Z,37.60
2018-11-05T14:44:55.965Z,36.47
2018-11-05T14:47:28.065Z,38.00
2018-11-05T14:50:00.091Z,37.93
2018-11-05T14:52:32.116Z,35.23
2018-11-05T14:55:05.391Z,38.87
2018-11-05T14:57:37.432Z,38.30
2018-11-05T15:00:11.586Z,38.90
2018-11-05T15:02:44.233Z,38.30
2018-11-05T15:05:16.548Z,37.77
2018-11-05T15:07:49.206Z,39.10
2018-11-05T15:10:22.442Z,41.83
2018-11-05T15:12:54.467Z,38.53
2018-11-05T15:15:26.498Z,35.83
2018-11-05T15:17:58.509Z,40.20
2018-11-05T15:20:30.592Z,38.97
2018-11-05T15:23:02.571Z,37.67
2018-11-05T15:25:34.631Z,39.57
2018-11-05T15:28:06.637Z,38.70
2018-11-05T15:30:38.715Z,40.97
2018-11-05T15:33:10.745Z,41.13
2018-11-05T15:35:42.770Z,39.63
2018-11-05T15:38:14.794Z,42.77
2018-11-05T15:40:46.819Z,41.03
2018-11-05T15:43:18.890Z,39.17
2018-11-05T15:45:50.910Z,42.73
2018-11-05T15:48:22.965Z,40.70
2018-11-05T15:50:55.050Z,41.03
2018-11-05T15:53:27.457Z,41.93
2018-11-05T15:55:59.270Z,40.43
2018-11-05T15:58:31.327Z,40.93
2018-11-05T16:01:03.650Z,40.83
2018-11-05T16:03:35.643Z,42.17
2018-11-05T16:06:07.741Z,41.77
2018-11-05T16:08:39.745Z,40.53
2018-11-05T16:11:11.779Z,41.30
2018-11-05T16:13:44.002Z,38.30
2018-11-05T16:16:16.057Z,40.03
2018-11-05T16:18:48.055Z,39.13
2018-11-05T16:21:20.110Z,38.73
2018-11-05T16:23:52.181Z,37.80
2018-11-05T16:26:24.243Z,40.17
2018-11-05T16:28:56.245Z,38.60
2018-11-05T16:31:28.285Z,39.80
2018-11-05T16:34:00.284Z,39.87
2018-11-05T16:36:32.403Z,36.50
2018-11-05T16:39:07.166Z,37.00
2018-11-05T16:41:39.733Z,36.90
2018-11-05T16:44:11.774Z,34.57
2018-11-05T16:46:43.815Z,35.70
2018-11-05T16:49:15.923Z,44.60
2018-11-05T16:51:48.176Z,37.80
2018-11-05T16:54:20.279Z,39.33
2018-11-05T16:56:52.326Z,41.40
2018-11-05T16:59:24.413Z,41.20
2018-11-05T17:01:56.950Z,40.80
2018-11-05T17:04:28.494Z,42.13
2018-11-05T17:07:00.500Z,44.13
2018-11-05T17:09:32.533Z,42.63
2018-11-05T17:12:05.129Z,46.03
2018-11-05T17:14:37.182Z,42.10
2018-11-05T17:17:09.342Z,43.70
2018-11-05T17:19:41.465Z,44.67
2018-11-05T17:22:13.609Z,40.47
2018-11-05T17:24:45.649Z,39.70
2018-11-05T17:27:17.749Z,35.67
2018-11-05T17:29:49.794Z,36.83
2018-11-05T17:32:21.863Z,36.57
2018-11-05T17:34:53.872Z,35.30
2018-11-05T17:37:25.942Z,35.60
2018-11-05T17:39:58.058Z,35.97
2018-11-05T17:42:30.178Z,34.83
2018-11-05T17:45:02.346Z,33.37
2018-11-05T17:47:34.374Z,35.50
2018-11-05T17:50:09.239Z,32.50
2018-11-05T17:52:41.640Z,32.50
2018-11-05T17:55:14.054Z,32.63
2018-11-05T17:57:46.969Z,31.97
2018-11-05T18:00:20.212Z,31.97
2018-11-05T18:02:52.274Z,31.47
2018-11-05T18:05:24.330Z,32.23
2018-11-05T18:07:56.372Z,31.70
2018-11-05T18:10:28.430Z,30.47
2018-11-05T18:13:00.535Z,32.47
2018-11-05T18:15:32.592Z,31.20
2018-11-05T18:18:04.645Z,33.27
2018-11-05T18:20:36.666Z,33.37
2018-11-05T18:23:08.710Z,34.20
2018-11-05T18:25:40.924Z,32.80
2018-11-05T18:28:12.976Z,32.70
2018-11-05T18:30:45.053Z,32.67
2018-11-05T18:33:17.064Z,32.47
2018-11-05T18:35:49.088Z,33.47
2018-11-05T18:38:21.418Z,31.73
2018-11-05T18:40:53.407Z,29.50
2018-11-05T18:43:25.450Z,30.23
2018-11-05T18:45:57.492Z,30.27
2018-11-05T18:48:29.652Z,33.13
2018-11-05T18:51:01.909Z,30.83
2018-11-05T18:53:34.134Z,28.47
2018-11-05T18:56:06.282Z,29.67
2018-11-05T18:58:38.435Z,30.20
2018-11-05T19:01:10.511Z,30.10
2018-11-05T19:03:42.590Z,28.27
2018-11-05T19:06:14.752Z,27.70
2018-11-05T19:08:46.800Z,28.87
2018-11-05T19:11:18.863Z,30.27
2018-11-05T19:13:50.957Z,28.90
2018-11-05T19:16:23.437Z,27.17
2018-11-05T19:18:55.519Z,27.27
2018-11-05T19:21:28.002Z,29.53
2018-11-05T19:24:00.269Z,28.77
2018-11-05T19:26:32.278Z,28.47
2018-11-05T19:29:04.582Z,28.83
2018-11-05T19:31:37.051Z,27.90
2018-11-05T19:34:09.483Z,30.13
2018-11-05T19:36:41.346Z,27.13
2018-11-05T19:39:13.707Z,27.57
2018-11-05T19:41:45.725Z,28.17
2018-11-05T19:44:17.786Z,29.73
2018-11-05T19:46:49.835Z,24.80
2018-11-05T19:49:21.871Z,28.37
2018-11-05T19:51:53.927Z,29.47
2018-11-05T19:54:25.967Z,27.30
2018-11-05T19:56:57.990Z,28.53
2018-11-05T19:59:30.124Z,27.07
2018-11-05T20:02:02.211Z,27.20
2018-11-05T20:04:34.322Z,27.17
2018-11-05T20:07:06.323Z,28.90
2018-11-05T20:09:38.379Z,27.97
2018-11-05T20:12:10.451Z,26.87
2018-11-05T20:14:42.489Z,27.87
2018-11-05T20:17:14.618Z,25.60
2018-11-05T20:19:46.629Z,27.93
2018-11-05T20:22:18.794Z,26.90
2018-11-05T20:24:50.775Z,26.93
2018-11-05T20:27:22.875Z,29.57
2018-11-05T20:29:54.944Z,27.30
2018-11-05T20:32:27.515Z,27.93
2018-11-05T20:34:59.011Z,26.00
2018-11-05T20:37:31.071Z,26.97
2018-11-05T20:40:03.337Z,27.53
2018-11-05T20:42:35.308Z,25.87
2018-11-05T20:45:07.396Z,27.13
2018-11-05T20:47:39.768Z,26.27
2018-11-05T20:50:12.685Z,25.40
2018-11-05T20:52:44.719Z,26.10
2018-11-05T20:55:17.438Z,27.20
2018-11-05T20:57:49.495Z,25.83
2018-11-05T21:00:22.069Z,25.07
2018-11-05T21:02:54.110Z,26.07
2018-11-05T21:05:26.147Z,26.40
2018-11-05T21:07:58.228Z,24.37
2018-11-05T21:10:30.279Z,25.70
2018-11-05T21:13:02.340Z,25.83
2018-11-05T21:15:34.376Z,25.03
2018-11-05T21:18:06.592Z,25.37
2018-11-05T21:20:38.480Z,24.70
2018-11-05T21:23:10.524Z,24.90
2018-11-05T21:25:42.574Z,25.13
2018-11-05T21:28:14.607Z,24.30
2018-11-05T21:30:46.701Z,23.60
2018-11-05T21:33:18.774Z,25.20
2018-11-05T21:35:50.847Z,22.83
2018-11-05T21:38:22.869Z,23.57
2018-11-05T21:40:54.899Z,25.10
2018-11-05T21:43:26.943Z,22.17
2018-11-05T21:45:58.966Z,21.80
2018-11-05T21:48:31.019Z,23.57
2018-11-05T21:51:03.071Z,24.10
2018-11-05T21:53:35.154Z,21.47
2018-11-05T21:56:07.205Z,22.13
2018-11-05T21:58:39.245Z,24.30
2018-11-05T22:01:11.286Z,23.23
2018-11-05T22:03:43.391Z,21.67
2018-11-05T22:06:15.450Z,20.77
2018-11-05T22:08:47.496Z,22.17
2018-11-05T22:11:19.553Z,23.00
2018-11-05T22:13:51.559Z,22.63
2018-11-05T22:16:23.581Z,21.17
2018-11-05T22:18:55.622Z,21.70
2018-11-05T22:21:27.783Z,22.70
2018-11-05T22:23:59.910Z,22.30
2018-11-05T22:26:32.007Z,22.27
2018-11-05T22:29:04.035Z,20.87
2018-11-05T22:31:36.135Z,21.53
2018-11-05T22:34:08.130Z,20.77
2018-11-05T22:36:40.146Z,20.33
2018-11-05T22:39:12.145Z,21.13
2018-11-05T22:41:44.173Z,22.00
2018-11-05T22:44:16.192Z,22.03
2018-11-05T22:46:48.277Z,22.87
2018-11-05T22:49:20.238Z,21.07
2018-11-05T22:51:52.267Z,19.37
2018-11-05T22:54:24.575Z,21.13
2018-11-05T22:56:56.686Z,21.30
2018-11-05T22:59:28.707Z,22.87
2018-11-05T23:02:00.792Z,21.13
2018-11-05T23:04:32.973Z,19.77
2018-11-05T23:07:05.007Z,21.13
2018-11-05T23:09:37.006Z,21.23
2018-11-05T23:12:09.056Z,20.17
2018-11-05T23:14:41.101Z,20.70
2018-11-05T23:17:13.126Z,22.13
2018-11-05T23:19:45.137Z,19.43
2018-11-05T23:22:17.146Z,20.37
2018-11-05T23:24:49.167Z,21.30
2018-11-05T23:27:21.207Z,19.80
2018-11-05T23:29:53.252Z,19.40
2018-11-05T23:32:25.260Z,22.23
2018-11-05T23:34:57.290Z,20.70
2018-11-05T23:37:29.327Z,20.97
2018-11-05T23:40:01.346Z,20.63
2018-11-05T23:42:33.512Z,18.83
2018-11-05T23:45:08.546Z,21.60
2018-11-05T23:47:40.583Z,20.17
2018-11-05T23:50:12.736Z,20.13
2018-11-05T23:52:44.767Z,19.60
2018-11-05T23:55:16.834Z,21.47
2018-11-05T23:57:48.844Z,20.23
